createdAt,value
2023-05-24T00:01:10.509Z,63.90
2023-05-24T00:04:15.135Z,63.90
2023-05-24T00:07:18.602Z,64.00
2023-05-24T00:10:22.108Z,63.80
2023-05-24T00:13:25.220Z,63.70
2023-05-24T00:16:29.932Z,64.00
2023-05-24T00:19:33.038Z,63.90
2023-05-24T00:22:36.921Z,63.60
2023-05-24T00:25:40.102Z,63.60
2023-05-24T00:28:43.156Z,63.40
2023-05-24T00:31:47.930Z,63.50
2023-05-24T00:34:51.242Z,63.30
2023-05-24T00:37:54.482Z,63.30
2023-05-24T00:40:59.889Z,63.30
2023-05-24T00:44:03.074Z,63.30
2023-05-24T00:47:08.552Z,63.30
2023-05-24T00:50:17.122Z,63.10
2023-05-24T00:53:20.436Z,63.20
2023-05-24T00:56:23.653Z,63.30
2023-05-24T00:59:27.421Z,63.10
2023-05-24T01:02:32.538Z,63.00
2023-05-24T01:05:35.844Z,63.30
2023-05-24T01:08:49.126Z,63.00
2023-05-24T01:12:04.998Z,63.10
2023-05-24T01:15:16.438Z,62.80
2023-05-24T01:18:30.471Z,63.00
2023-05-24T01:21:48.579Z,62.90
2023-05-24T01:25:02.384Z,63.00
2023-05-24T01:28:09.677Z,62.90
2023-05-24T01:31:14.338Z,63.20
2023-05-24T01:34:17.489Z,63.30
2023-05-24T01:37:20.616Z,63.00
2023-05-24T01:40:24.105Z,63.10
2023-05-24T01:43:33.753Z,63.30
2023-05-24T01:46:38.597Z,63.10
2023-05-24T01:49:49.813Z,62.80
2023-05-24T01:52:54.589Z,62.90
2023-05-24T01:56:01.183Z,63.20
2023-05-24T01:59:07.347Z,63.20
2023-05-24T02:02:11.526Z,63.50
2023-05-24T02:05:14.710Z,63.40
2023-05-24T02:08:18.454Z,64.00
2023-05-24T02:11:21.754Z,63.80
2023-05-24T02:14:26.451Z,64.10
2023-05-24T02:17:33.281Z,64.30
2023-05-24T02:20:37.568Z,64.20
2023-05-24T02:23:41.630Z,64.50
2023-05-24T02:26:45.086Z,64.60
2023-05-24T02:29:49.921Z,64.50
2023-05-24T02:32:53.267Z,64.80
2023-05-24T02:35:56.944Z,64.80
2023-05-24T02:39:00.017Z,64.80
2023-05-24T02:42:05.128Z,64.70
2023-05-24T02:45:10.749Z,64.90
2023-05-24T02:48:14.041Z,64.80
2023-05-24T02:51:17.294Z,65.00
2023-05-24T02:54:20.466Z,65.00
2023-05-24T02:57:24.184Z,65.00
2023-05-24T03:00:29.206Z,65.00
2023-05-24T03:03:32.378Z,65.10
2023-05-24T03:06:36.160Z,65.10
2023-05-24T03:09:39.337Z,65.20
2023-05-24T03:12:42.398Z,65.40
2023-05-24T03:15:47.038Z,65.40
2023-05-24T03:18:51.136Z,65.80
2023-05-24T03:21:54.476Z,65.80
2023-05-24T03:24:58.352Z,65.70
2023-05-24T03:28:02.602Z,65.70
2023-05-24T03:31:07.279Z,65.80
2023-05-24T03:34:10.556Z,65.80
2023-05-24T03:37:13.605Z,65.90
2023-05-24T03:40:16.986Z,65.80
2023-05-24T03:43:20.095Z,66.00
2023-05-24T03:46:24.571Z,65.80
2023-05-24T03:49:27.641Z,65.50
2023-05-24T03:52:30.707Z,65.60
2023-05-24T03:55:34.290Z,65.70
2023-05-24T03:58:37.613Z,65.70
2023-05-24T04:01:42.136Z,65.40
2023-05-24T04:04:46.381Z,65.20
2023-05-24T04:07:49.633Z,65.10
2023-05-24T04:10:54.516Z,65.20
2023-05-24T04:14:00.632Z,65.20
2023-05-24T04:17:06.001Z,64.40
2023-05-24T04:20:10.059Z,64.50
2023-05-24T04:23:13.541Z,64.20
2023-05-24T04:26:17.703Z,64.30
2023-05-24T04:29:20.859Z,64.00
2023-05-24T04:32:26.236Z,63.70
2023-05-24T04:35:30.444Z,63.70
2023-05-24T04:38:34.575Z,63.80
2023-05-24T04:41:38.686Z,64.10
2023-05-24T04:44:42.703Z,64.00
2023-05-24T04:47:47.169Z,63.90
2023-05-24T04:50:50.258Z,63.90
2023-05-24T04:53:53.300Z,63.90
2023-05-24T04:56:56.328Z,63.70
2023-05-24T04:59:59.521Z,64.10
2023-05-24T05:03:05.996Z,63.90
2023-05-24T05:06:09.142Z,63.80
2023-05-24T05:09:13.914Z,64.10
2023-05-24T05:12:17.087Z,64.20
2023-05-24T05:15:21.176Z,64.60
2023-05-24T05:18:25.736Z,64.50
2023-05-24T05:21:30.093Z,64.30
2023-05-24T05:24:34.742Z,63.80
2023-05-24T05:27:38.820Z,63.40
2023-05-24T05:30:42.030Z,63.40
2023-05-24T05:33:46.581Z,63.20
2023-05-24T05:36:49.640Z,63.10
2023-05-24T05:39:52.979Z,62.90
2023-05-24T05:42:56.121Z,62.70
2023-05-24T05:46:00.677Z,62.60
2023-05-24T05:49:05.255Z,62.60
2023-05-24T05:52:08.343Z,62.50
2023-05-24T05:55:12.433Z,62.30
2023-05-24T05:58:15.657Z,62.20
2023-05-24T06:01:18.777Z,62.50
2023-05-24T06:04:26.068Z,62.80
2023-05-24T06:07:29.401Z,62.50
2023-05-24T06:10:32.430Z,63.00
2023-05-24T06:13:35.509Z,62.70
2023-05-24T06:16:42.134Z,62.30
2023-05-24T06:19:46.778Z,62.50
2023-05-24T06:22:50.742Z,62.60
2023-05-24T06:25:53.732Z,62.50
2023-05-24T06:28:56.824Z,62.30
2023-05-24T06:32:00.200Z,62.50
2023-05-24T06:35:05.541Z,62.40
2023-05-24T06:38:08.868Z,62.20
2023-05-24T06:41:11.944Z,62.10
2023-05-24T06:44:16.378Z,62.10
2023-05-24T06:47:19.706Z,62.50
2023-05-24T06:50:25.137Z,62.90
2023-05-24T06:53:28.490Z,62.90
2023-05-24T06:56:32.116Z,62.50
2023-05-24T06:59:35.107Z,62.50
2023-05-24T07:02:38.244Z,62.50
2023-05-24T07:05:42.806Z,62.30
2023-05-24T07:08:45.968Z,62.40
2023-05-24T07:11:49.161Z,62.20
2023-05-24T07:14:53.338Z,62.70
2023-05-24T07:17:56.483Z,63.30
2023-05-24T07:21:01.065Z,63.00
2023-05-24T07:24:04.958Z,62.80
2023-05-24T07:27:08.024Z,62.70
2023-05-24T07:30:23.579Z,62.30
2023-05-24T07:33:34.741Z,62.00
2023-05-24T07:36:40.970Z,61.80
2023-05-24T07:39:43.983Z,61.80
2023-05-24T07:42:47.511Z,62.10
2023-05-24T07:45:50.643Z,61.80
2023-05-24T07:48:53.666Z,62.00
2023-05-24T07:51:59.586Z,62.00
2023-05-24T07:55:02.605Z,61.40
2023-05-24T07:58:05.715Z,61.30
2023-05-24T08:01:08.784Z,61.00
2023-05-24T08:04:11.932Z,60.90
2023-05-24T08:07:17.919Z,60.00
2023-05-24T08:10:21.949Z,59.70
2023-05-24T08:13:25.149Z,59.20
2023-05-24T08:16:28.195Z,60.00
2023-05-24T08:19:35.873Z,59.30
2023-05-24T08:22:40.682Z,59.40
2023-05-24T08:25:44.303Z,60.00
2023-05-24T08:28:47.607Z,59.60
2023-05-24T08:31:50.744Z,59.70
2023-05-24T08:35:06.829Z,60.00
2023-05-24T08:38:20.456Z,60.50
2023-05-24T08:41:24.126Z,60.70
2023-05-24T08:44:29.632Z,61.10
2023-05-24T08:47:33.535Z,60.80
2023-05-24T08:50:37.429Z,60.40
2023-05-24T08:53:48.902Z,61.00
2023-05-24T08:56:53.052Z,60.50
2023-05-24T08:59:56.631Z,60.70
2023-05-24T09:03:01.346Z,60.10
2023-05-24T09:06:05.164Z,60.80
2023-05-24T09:09:11.094Z,61.20
2023-05-24T09:12:32.446Z,61.20
2023-05-24T09:15:41.508Z,60.50
2023-05-24T09:18:46.729Z,60.60
2023-05-24T09:21:51.058Z,60.20
2023-05-24T09:24:59.763Z,59.70
2023-05-24T09:28:08.715Z,59.50
2023-05-24T09:31:12.380Z,59.60
2023-05-24T09:34:17.057Z,59.60
2023-05-24T09:37:27.427Z,59.50
2023-05-24T09:40:35.400Z,58.60
2023-05-24T09:43:49.952Z,58.20
2023-05-24T09:46:53.191Z,57.40
2023-05-24T09:49:56.295Z,57.40
2023-05-24T09:52:59.485Z,57.00
2023-05-24T09:56:05.371Z,57.50
2023-05-24T09:59:09.837Z,58.00
2023-05-24T10:02:13.996Z,57.60
2023-05-24T10:05:17.513Z,57.50
2023-05-24T10:08:21.546Z,57.70
2023-05-24T10:11:26.245Z,58.20
2023-05-24T10:14:30.966Z,57.50
2023-05-24T10:17:34.138Z,57.20
2023-05-24T10:20:37.947Z,57.60
2023-05-24T10:23:45.000Z,57.50
2023-05-24T10:26:50.657Z,57.40
2023-05-24T10:30:02.413Z,57.90
2023-05-24T10:33:09.560Z,58.30
2023-05-24T10:36:15.979Z,56.60
2023-05-24T10:39:22.688Z,57.20
2023-05-24T10:42:27.632Z,57.40
2023-05-24T10:45:36.066Z,57.10
2023-05-24T10:48:40.845Z,58.20
2023-05-24T10:51:44.534Z,56.20
2023-05-24T10:55:05.233Z,55.60
2023-05-24T10:58:13.226Z,54.10
2023-05-24T11:01:27.712Z,55.60
2023-05-24T11:04:37.664Z,54.00
2023-05-24T11:07:43.447Z,53.90
2023-05-24T11:10:47.577Z,54.30
2023-05-24T11:13:57.744Z,53.80
2023-05-24T11:17:02.258Z,53.00
2023-05-24T11:20:09.294Z,53.40
2023-05-24T11:23:12.633Z,54.10
2023-05-24T11:26:16.220Z,54.30
2023-05-24T11:29:22.731Z,54.70
2023-05-24T11:32:26.202Z,54.50
2023-05-24T11:35:29.877Z,53.50
2023-05-24T11:38:33.131Z,54.00
2023-05-24T11:41:41.148Z,53.60
2023-05-24T11:44:45.822Z,54.20
2023-05-24T11:47:50.384Z,54.30
2023-05-24T11:50:53.983Z,55.00
2023-05-24T11:53:57.753Z,55.20
2023-05-24T11:57:02.502Z,55.50
2023-05-24T12:00:11.279Z,54.80
2023-05-24T12:03:14.593Z,55.50
2023-05-24T12:06:18.245Z,53.50
2023-05-24T12:09:21.360Z,52.70
2023-05-24T12:12:30.665Z,52.30
2023-05-24T12:15:38.831Z,52.10
2023-05-24T12:18:51.366Z,52.40
2023-05-24T12:21:59.549Z,51.40
2023-05-24T12:25:05.254Z,51.40
2023-05-24T12:28:08.372Z,51.00
2023-05-24T12:31:13.145Z,51.60
2023-05-24T12:34:18.948Z,51.90
2023-05-24T12:37:22.553Z,51.80
2023-05-24T12:40:26.067Z,52.90
2023-05-24T12:43:30.272Z,53.70
2023-05-24T12:46:35.011Z,53.40
2023-05-24T12:49:38.920Z,53.50
2023-05-24T12:52:42.079Z,53.80
2023-05-24T12:55:45.199Z,54.30
2023-05-24T12:58:49.710Z,53.80
2023-05-24T13:01:54.194Z,54.00
2023-05-24T13:04:57.501Z,54.80
2023-05-24T13:08:00.851Z,54.80
2023-05-24T13:11:04.025Z,54.30
2023-05-24T13:14:07.604Z,53.60
2023-05-24T13:17:12.141Z,53.30
2023-05-24T13:20:15.976Z,53.70
2023-05-24T13:23:19.345Z,52.80
2023-05-24T13:26:23.190Z,51.60
2023-05-24T13:29:39.271Z,51.00
2023-05-24T13:32:47.246Z,51.90
2023-05-24T13:35:50.793Z,51.40
2023-05-24T13:39:02.551Z,51.70
2023-05-24T13:42:16.287Z,52.00
2023-05-24T13:45:19.452Z,52.10
2023-05-24T13:48:24.098Z,52.10
2023-05-24T13:51:27.185Z,52.50
2023-05-24T13:54:30.410Z,51.90
2023-05-24T14:00:43.004Z,51.80
2023-05-24T14:03:48.008Z,51.60
2023-05-24T14:06:51.100Z,51.90
2023-05-24T14:09:54.459Z,50.70
2023-05-24T14:13:16.209Z,51.40
2023-05-24T14:16:20.705Z,50.80
2023-05-24T14:19:25.393Z,50.40
2023-05-24T14:22:29.492Z,50.50
2023-05-24T14:25:33.055Z,50.30
2023-05-24T14:28:36.107Z,50.70
2023-05-24T14:31:42.382Z,49.70
2023-05-24T14:34:46.969Z,49.30
2023-05-24T14:37:50.483Z,49.00
2023-05-24T14:40:53.646Z,49.20
2023-05-24T14:43:56.849Z,49.70
2023-05-24T14:46:59.931Z,50.00
2023-05-24T14:50:04.469Z,50.50
2023-05-24T14:53:09.836Z,50.10
2023-05-24T14:56:14.355Z,51.00
2023-05-24T14:59:17.492Z,51.00
2023-05-24T15:02:21.724Z,51.20
2023-05-24T15:05:26.232Z,51.00
2023-05-24T15:08:29.895Z,51.20
2023-05-24T15:11:33.052Z,51.40
2023-05-24T15:14:37.395Z,51.00
2023-05-24T15:17:40.410Z,50.30
2023-05-24T15:20:45.238Z,49.50
2023-05-24T15:23:48.535Z,49.50
2023-05-24T15:26:51.502Z,49.20
2023-05-24T15:29:58.968Z,50.00
2023-05-24T15:33:02.016Z,49.70
2023-05-24T15:36:06.965Z,49.30
2023-05-24T15:39:11.593Z,48.90
2023-05-24T15:42:15.706Z,49.20
2023-05-24T15:45:18.801Z,49.90
2023-05-24T15:48:22.696Z,49.90
2023-05-24T15:54:33.840Z,50.00
2023-05-24T15:57:37.227Z,50.10
2023-05-24T16:00:40.472Z,50.30
2023-05-24T16:03:43.814Z,51.20
2023-05-24T16:06:49.281Z,51.60
2023-05-24T16:09:52.917Z,51.30
2023-05-24T16:12:56.063Z,51.50
2023-05-24T16:15:59.128Z,51.10
2023-05-24T16:19:02.351Z,51.30
2023-05-24T16:22:07.872Z,51.30
2023-05-24T16:25:11.128Z,51.60
2023-05-24T16:28:14.248Z,51.10
2023-05-24T16:31:17.290Z,51.20
2023-05-24T16:34:20.350Z,51.00
2023-05-24T16:37:24.928Z,51.00
2023-05-24T16:40:28.487Z,50.80
2023-05-24T16:43:31.509Z,50.90
2023-05-24T16:46:35.032Z,51.50
2023-05-24T16:49:38.107Z,51.30
2023-05-24T16:52:42.728Z,51.60
2023-05-24T16:55:45.967Z,52.60
2023-05-24T16:58:48.895Z,53.00
2023-05-24T17:01:51.928Z,53.10
2023-05-24T17:04:54.983Z,53.00
2023-05-24T17:07:59.371Z,53.30
2023-05-24T17:11:02.500Z,53.90
2023-05-24T17:14:05.595Z,53.60
2023-05-24T17:17:10.538Z,53.80
2023-05-24T17:20:14.898Z,54.00
2023-05-24T17:23:20.993Z,54.20
2023-05-24T17:26:24.870Z,54.00
2023-05-24T17:29:29.890Z,54.40
2023-05-24T17:32:32.978Z,54.60
2023-05-24T17:35:36.076Z,54.60
2023-05-24T17:38:41.082Z,54.70
2023-05-24T17:41:44.554Z,55.10
2023-05-24T17:44:48.032Z,54.90
2023-05-24T17:47:51.128Z,55.30
2023-05-24T17:50:54.192Z,55.60
2023-05-24T17:53:58.968Z,55.90
2023-05-24T17:57:04.027Z,55.70
2023-05-24T18:00:08.924Z,55.90
2023-05-24T18:03:13.059Z,56.00
2023-05-24T18:06:16.194Z,56.10
2023-05-24T18:09:21.587Z,56.20
2023-05-24T18:12:24.841Z,56.30
2023-05-24T18:15:28.379Z,56.50
2023-05-24T18:18:31.448Z,56.30
2023-05-24T18:21:34.599Z,56.50
2023-05-24T18:24:39.415Z,57.00
2023-05-24T18:27:42.505Z,56.90
2023-05-24T18:30:45.707Z,57.00
2023-05-24T18:33:48.953Z,57.00
2023-05-24T18:36:53.433Z,57.20
2023-05-24T18:39:58.889Z,57.40
2023-05-24T18:43:02.138Z,57.70
2023-05-24T18:46:05.391Z,57.70
2023-05-24T18:49:10.993Z,57.90
2023-05-24T18:52:14.392Z,58.00
2023-05-24T18:55:20.045Z,58.20
2023-05-24T18:58:23.226Z,58.30
2023-05-24T19:01:28.139Z,58.60
2023-05-24T19:04:33.421Z,58.70
2023-05-24T19:07:37.420Z,58.60
2023-05-24T19:10:42.408Z,58.80
2023-05-24T19:13:45.664Z,58.90
2023-05-24T19:16:48.887Z,59.00
2023-05-24T19:19:52.107Z,59.00
2023-05-24T19:22:56.090Z,59.10
2023-05-24T19:26:00.588Z,59.20
2023-05-24T19:29:08.207Z,59.40
2023-05-24T19:32:11.926Z,59.30
2023-05-24T19:35:15.126Z,59.40
2023-05-24T19:38:21.058Z,59.50
2023-05-24T19:41:26.829Z,59.70
2023-05-24T19:44:30.237Z,60.00
2023-05-24T19:47:35.861Z,60.20
2023-05-24T19:50:40.528Z,60.20
2023-05-24T19:53:43.540Z,60.30
2023-05-24T19:56:52.190Z,60.50
2023-05-24T19:59:55.298Z,60.90
2023-05-24T20:02:58.528Z,61.00
2023-05-24T20:06:02.370Z,61.30
2023-05-24T20:09:05.739Z,61.20
2023-05-24T20:12:11.349Z,61.50
2023-05-24T20:15:17.705Z,61.70
2023-05-24T20:18:20.739Z,61.70
2023-05-24T20:21:23.861Z,61.80
2023-05-24T20:24:26.925Z,61.80
2023-05-24T20:27:32.601Z,61.80
2023-05-24T20:30:36.750Z,62.00
2023-05-24T20:33:40.581Z,62.10
2023-05-24T20:36:44.026Z,62.30
2023-05-24T20:39:47.498Z,62.70
2023-05-24T20:42:52.116Z,63.10
2023-05-24T20:45:55.456Z,62.90
2023-05-24T20:48:59.110Z,63.20
2023-05-24T20:52:04.813Z,63.20
2023-05-24T20:55:08.737Z,63.10
2023-05-24T20:58:13.261Z,63.00
2023-05-24T21:01:17.688Z,63.00
2023-05-24T21:04:20.856Z,63.00
2023-05-24T21:07:24.373Z,63.00
2023-05-24T21:10:29.444Z,63.10
2023-05-24T21:13:34.048Z,63.70
2023-05-24T21:16:37.112Z,63.60
2023-05-24T21:19:40.454Z,63.50
2023-05-24T21:22:43.883Z,63.60
2023-05-24T21:25:47.063Z,63.70
2023-05-24T21:28:52.414Z,63.70
2023-05-24T21:31:55.899Z,64.00
2023-05-24T21:34:58.937Z,64.10
2023-05-24T21:38:02.061Z,64.30
2023-05-24T21:41:05.762Z,64.20
2023-05-24T21:44:10.411Z,64.30
2023-05-24T21:47:13.530Z,64.70
2023-05-24T21:50:16.700Z,64.60
2023-05-24T21:53:19.792Z,64.90
2023-05-24T21:56:23.017Z,64.80
2023-05-24T21:59:27.902Z,65.00
2023-05-24T22:02:32.104Z,65.30
2023-05-24T22:05:35.383Z,65.30
2023-05-24T22:08:38.960Z,65.40
2023-05-24T22:11:42.151Z,65.40
2023-05-24T22:14:47.008Z,65.60
2023-05-24T22:17:50.348Z,65.70
2023-05-24T22:20:58.242Z,65.70
2023-05-24T22:24:01.748Z,66.00
2023-05-24T22:27:05.380Z,66.30
2023-05-24T22:30:10.892Z,66.30
2023-05-24T22:33:14.961Z,66.40
2023-05-24T22:36:22.634Z,66.60
2023-05-24T22:39:26.317Z,66.50
2023-05-24T22:42:29.400Z,66.70
2023-05-24T22:45:34.056Z,66.60
2023-05-24T22:48:37.695Z,66.70
2023-05-24T22:51:46.807Z,66.80
2023-05-24T22:54:50.551Z,66.80
2023-05-24T22:57:53.684Z,66.80
2023-05-24T23:00:58.272Z,66.90
2023-05-24T23:04:15.764Z,67.20
2023-05-24T23:07:28.657Z,67.10
2023-05-24T23:10:32.224Z,67.10
2023-05-24T23:13:36.213Z,67.00
2023-05-24T23:16:45.561Z,67.10
2023-05-24T23:19:50.401Z,67.10
2023-05-24T23:22:53.611Z,67.30
2023-05-24T23:25:57.351Z,67.30
2023-05-24T23:29:00.512Z,67.30
2023-05-24T23:32:05.820Z,67.40
2023-05-24T23:35:09.948Z,67.40
2023-05-24T23:38:14.134Z,67.30
2023-05-24T23:41:17.854Z,67.40
2023-05-24T23:44:23.570Z,67.20
2023-05-24T23:47:28.121Z,67.10
2023-05-24T23:50:37.358Z,67.20
2023-05-24T23:53:46.421Z,67.10
2023-05-24T23:56:49.615Z,67.30
2023-05-24T23:59:53.223Z,67.30
